Time;durP1;ratioP1;P1;durP2;ratioP2;P2;SDS_P1;SDS_P2;PMS_P1;PMS_P2;Temp;Humidity;BMP_temperature;BMP_pressure;BME280_temperature;BME280_humidity;BME280_pressure;Samples;Min_cycle;Max_cycle;Signal;HPM_P1;HPM_P2
2021/07/05 00:00:49;;;;;;;4.55;3.47;;;19.00;99.90;;;;;;5090124;28;20270;-76
2021/07/05 00:03:16;;;;;;;3.22;2.90;;;18.90;99.90;;;;;;5089694;28;20208;-76
2021/07/05 00:05:42;;;;;;;6.70;3.13;;;18.80;99.90;;;;;;5090003;28;20630;-71
2021/07/05 00:08:11;;;;;;;3.10;2.33;;;18.90;99.90;;;;;;5093038;28;20209;-74
2021/07/05 00:10:38;;;;;;;4.55;3.40;;;18.80;99.90;;;;;;5066418;28;20282;-76
2021/07/05 00:13:05;;;;;;;4.20;2.80;;;18.80;99.90;;;;;;5094759;28;20212;-80
2021/07/05 00:15:35;;;;;;;3.47;2.60;;;18.80;99.90;;;;;;5093957;28;20657;-70
2021/07/05 00:18:05;;;;;;;3.10;2.83;;;18.90;99.90;;;;;;5093218;28;20669;-80
2021/07/05 00:20:34;;;;;;;5.18;2.80;;;18.90;99.90;;;;;;5093939;28;20643;-75
2021/07/05 00:23:02;;;;;;;3.63;2.35;;;18.90;99.90;;;;;;5083726;28;20285;-75
2021/07/05 00:25:31;;;;;;;4.28;2.30;;;18.90;99.90;;;;;;5089811;28;20274;-79
2021/07/05 00:27:58;;;;;;;2.28;2.08;;;18.80;99.90;;;;;;5093260;28;20232;-77
2021/07/05 00:30:26;;;;;;;3.10;2.85;;;18.80;99.90;;;;;;5093596;28;20267;-77
2021/07/05 00:32:53;;;;;;;7.80;2.75;;;18.90;99.90;;;;;;5092775;28;20206;-76
2021/07/05 00:35:25;;;;;;;4.45;2.55;;;18.90;99.90;;;;;;5093815;28;20202;-74
2021/07/05 00:37:52;;;;;;;5.00;2.88;;;18.90;99.90;;;;;;5072808;28;20630;-76
2021/07/05 00:40:20;;;;;;;2.28;2.10;;;18.80;99.90;;;;;;5073477;28;20210;-71
2021/07/05 00:42:50;;;;;;;4.95;2.85;;;18.80;99.90;;;;;;5072807;28;20209;-80
2021/07/05 00:45:18;;;;;;;3.22;2.50;;;18.70;99.90;;;;;;5073344;28;20256;-73
2021/07/05 00:47:46;;;;;;;3.00;2.78;;;18.80;99.90;;;;;;5072576;28;20633;-75
2021/07/05 00:50:15;;;;;;;3.03;2.58;;;18.80;99.90;;;;;;5073158;28;20639;-72
2021/07/05 00:52:43;;;;;;;2.67;2.42;;;18.70;99.90;;;;;;5072764;28;20243;-72
2021/07/05 00:55:12;;;;;;;2.80;1.95;;;18.70;99.90;;;;;;5073000;28;20210;-73
2021/07/05 00:57:39;;;;;;;2.47;2.28;;;18.60;99.90;;;;;;5073452;28;20671;-71
2021/07/05 01:00:10;;;;;;;2.85;2.58;;;18.70;99.90;;;;;;5073569;28;20206;-83
2021/07/05 01:02:38;;;;;;;3.97;2.58;;;18.70;99.90;;;;;;5073114;28;20256;-74
2021/07/05 01:05:07;;;;;;;3.08;2.83;;;18.70;99.90;;;;;;5073345;28;20232;-71
2021/07/05 01:07:34;;;;;;;4.15;2.08;;;18.80;99.90;;;;;;5072738;28;20692;-83
2021/07/05 01:10:01;;;;;;;3.35;2.88;;;18.80;99.90;;;;;;5072529;28;20287;-71
2021/07/05 01:12:28;;;;;;;2.63;2.42;;;18.80;99.90;;;;;;5072574;28;20267;-78
2021/07/05 01:14:55;;;;;;;3.20;2.47;;;18.80;99.90;;;;;;5072160;28;20214;-72
2021/07/05 01:17:23;;;;;;;2.05;1.85;;;18.80;99.90;;;;;;5072802;28;20210;-71
2021/07/05 01:19:52;;;;;;;2.33;2.13;;;18.70;99.90;;;;;;5072149;28;20631;-71
2021/07/05 01:22:20;;;;;;;3.05;2.10;;;18.70;99.90;;;;;;5072769;28;20214;-78
2021/07/05 01:24:49;;;;;;;2.80;2.05;;;18.70;99.90;;;;;;5071987;28;20268;-71
2021/07/05 01:27:17;;;;;;;2.85;2.55;;;18.70;99.90;;;;;;5072862;28;20206;-72
2021/07/05 01:29:44;;;;;;;2.25;1.95;;;18.60;99.90;;;;;;5071578;28;20206;-73
2021/07/05 01:32:12;;;;;;;2.80;2.08;;;18.60;99.90;;;;;;5072621;28;20202;-75
2021/07/05 01:34:39;;;;;;;3.72;2.95;;;18.60;99.90;;;;;;5072693;28;20214;-76
2021/07/05 01:37:08;;;;;;;5.85;2.80;;;18.60;99.90;;;;;;5072493;28;20242;-72
2021/07/05 01:39:36;;;;;;;2.65;2.30;;;18.60;99.90;;;;;;5072422;28;20214;-75
2021/07/05 01:42:04;;;;;;;2.83;2.63;;;18.60;99.90;;;;;;5072099;28;20209;-72
2021/07/05 01:44:32;;;;;;;3.22;2.60;;;18.60;99.90;;;;;;5071717;28;20673;-71
2021/07/05 01:46:59;;;;;;;3.60;2.40;;;18.50;99.90;;;;;;5071841;28;20623;-71
2021/07/05 01:49:26;;;;;;;3.13;2.22;;;18.50;99.90;;;;;;5071835;28;20617;-75
2021/07/05 01:51:54;;;;;;;2.53;2.33;;;18.50;99.90;;;;;;5071236;28;20275;-71
2021/07/05 01:54:21;;;;;;;3.13;2.03;;;18.50;99.90;;;;;;5072310;28;20210;-70
2021/07/05 01:56:49;;;;;;;2.78;2.55;;;18.40;99.90;;;;;;5071524;28;20255;-73
2021/07/05 01:59:16;;;;;;;3.10;2.78;;;18.40;99.90;;;;;;5071817;28;20206;-71
2021/07/05 02:01:43;;;;;;;2.45;2.25;;;18.40;99.90;;;;;;5071134;28;20206;-72
2021/07/05 02:04:11;;;;;;;2.45;2.25;;;18.40;99.90;;;;;;5071892;28;20198;-71
2021/07/05 02:06:38;;;;;;;3.13;2.85;;;18.40;99.90;;;;;;5072014;28;20689;-75
2021/07/05 02:09:07;;;;;;;2.65;2.10;;;18.40;99.90;;;;;;5071584;28;20210;-72
2021/07/05 02:11:34;;;;;;;3.00;2.67;;;18.30;99.90;;;;;;5071623;28;20233;-76
2021/07/05 02:14:03;;;;;;;3.72;3.42;;;18.50;99.90;;;;;;5070969;28;20267;-78
2021/07/05 02:16:30;;;;;;;4.15;2.38;;;18.50;99.90;;;;;;5071510;28;20214;-76
2021/07/05 02:18:57;;;;;;;5.82;2.50;;;18.40;99.90;;;;;;5070800;28;20710;-72
2021/07/05 02:21:24;;;;;;;3.10;2.72;;;18.40;99.90;;;;;;5071418;28;20297;-78
2021/07/05 02:23:51;;;;;;;2.88;2.58;;;18.40;99.90;;;;;;5070728;28;20210;-73
2021/07/05 02:26:18;;;;;;;3.10;2.50;;;18.40;99.90;;;;;;5071236;28;20287;-73
2021/07/05 02:28:45;;;;;;;2.47;2.03;;;18.30;99.90;;;;;;5070589;28;20214;-71
2021/07/05 02:31:14;;;;;;;3.40;2.83;;;18.30;99.90;;;;;;5070208;28;20282;-76
2021/07/05 02:33:42;;;;;;;3.00;2.80;;;18.30;99.90;;;;;;5070828;28;20210;-74
2021/07/05 02:36:10;;;;;;;2.70;2.50;;;18.20;99.90;;;;;;5071338;28;20255;-77
2021/07/05 02:38:38;;;;;;;3.33;3.00;;;18.30;99.90;;;;;;5071629;28;20562;-71
2021/07/05 02:41:06;;;;;;;2.20;2.10;;;18.30;99.90;;;;;;5071270;28;20206;-74
2021/07/05 02:43:34;;;;;;;3.03;2.65;;;18.30;99.90;;;;;;5070871;28;20210;-71
2021/07/05 02:46:03;;;;;;;3.05;2.70;;;18.20;99.90;;;;;;5070482;28;20634;-78
2021/07/05 02:48:33;;;;;;;2.85;2.55;;;18.10;99.90;;;;;;5070933;28;20210;-77
2021/07/05 02:51:04;;;;;;;2.35;2.13;;;18.10;99.90;;;;;;5070856;28;20721;-71
2021/07/05 02:53:31;;;;;;;3.65;2.40;;;18.10;99.90;;;;;;5070481;28;20620;-70
2021/07/05 02:55:58;;;;;;;2.63;2.40;;;18.00;99.90;;;;;;5070400;28;20673;-71
2021/07/05 02:58:25;;;;;;;2.47;2.10;;;18.00;99.90;;;;;;5070476;28;20222;-74
2021/07/05 03:00:55;;;;;;;2.25;2.05;;;18.10;99.90;;;;;;5070628;28;20275;-73
2021/07/05 03:03:23;;;;;;;2.90;2.35;;;18.10;99.90;;;;;;5071048;28;20202;-76
2021/07/05 03:05:52;;;;;;;2.75;2.50;;;18.10;99.90;;;;;;5070700;28;20252;-71
2021/07/05 03:08:20;;;;;;;4.28;2.60;;;18.00;99.90;;;;;;5070715;28;20209;-73
2021/07/05 03:10:47;;;;;;;2.67;2.47;;;18.00;99.90;;;;;;5069770;28;20271;-75
2021/07/05 03:13:17;;;;;;;3.15;2.85;;;18.00;99.90;;;;;;5070616;28;20259;-72
2021/07/05 03:15:45;;;;;;;3.60;2.47;;;18.00;99.90;;;;;;5069996;28;20689;-77
2021/07/05 03:18:13;;;;;;;5.80;2.80;;;17.90;99.90;;;;;;5070718;28;20677;-71
2021/07/05 03:20:41;;;;;;;2.95;2.70;;;17.90;99.90;;;;;;5070662;28;20202;-72
2021/07/05 03:23:11;;;;;;;3.92;2.53;;;18.00;99.90;;;;;;5070838;28;20275;-72
2021/07/05 03:25:39;;;;;;;3.45;2.28;;;18.00;99.90;;;;;;5070267;28;20633;-71
2021/07/05 03:28:08;;;;;;;4.85;2.70;;;18.00;99.90;;;;;;5071176;28;20202;-72
2021/07/05 03:30:37;;;;;;;6.95;2.88;;;17.90;99.90;;;;;;5070843;28;20240;-72
2021/07/05 03:33:05;;;;;;;2.45;2.03;;;17.90;99.90;;;;;;5070812;28;20202;-74
2021/07/05 03:35:32;;;;;;;3.03;2.60;;;17.90;99.90;;;;;;5070659;28;20206;-78
2021/07/05 03:38:00;;;;;;;4.28;2.65;;;17.90;99.90;;;;;;5070123;28;20984;-80
2021/07/05 03:40:30;;;;;;;3.90;2.42;;;17.90;99.90;;;;;;5070655;28;20327;-85
2021/07/05 03:42:58;;;;;;;3.63;3.20;;;17.90;99.90;;;;;;5073455;28;20206;-75
2021/07/05 03:45:27;;;;;;;4.53;3.45;;;17.90;99.90;;;;;;5074253;28;20205;-76
2021/07/05 03:47:56;;;;;;;4.78;2.85;;;17.90;99.90;;;;;;5073976;28;20201;-82
2021/07/05 03:50:23;;;;;;;4.22;2.55;;;17.90;99.90;;;;;;5073912;28;20678;-70
2021/07/05 03:52:52;;;;;;;6.40;2.60;;;17.90;99.90;;;;;;5074244;28;20279;-71
2021/07/05 03:55:21;;;;;;;3.58;2.90;;;17.90;99.90;;;;;;5073665;28;20626;-70
2021/07/05 03:57:50;;;;;;;3.00;2.58;;;17.90;99.90;;;;;;5074126;28;20325;-77
2021/07/05 04:00:20;;;;;;;2.63;2.42;;;17.80;99.90;;;;;;5074015;28;20210;-71
2021/07/05 04:02:47;;;;;;;2.78;2.55;;;17.80;99.90;;;;;;5073672;28;20206;-70
2021/07/05 04:05:15;;;;;;;5.10;3.20;;;17.70;99.90;;;;;;5074315;28;20206;-71
2021/07/05 04:07:43;;;;;;;3.00;2.75;;;17.70;99.90;;;;;;5073838;28;20209;-81
2021/07/05 04:10:12;;;;;;;5.13;3.40;;;17.70;99.90;;;;;;5073885;28;20210;-76
2021/07/05 04:12:40;;;;;;;3.97;2.88;;;17.70;99.90;;;;;;5074066;28;20643;-80
2021/07/05 04:15:09;;;;;;;3.58;2.83;;;17.70;99.90;;;;;;5074170;28;20210;-71
2021/07/05 04:17:36;;;;;;;4.82;3.08;;;17.70;99.90;;;;;;5074042;28;20206;-80
2021/07/05 04:20:07;;;;;;;5.80;3.40;;;17.70;99.90;;;;;;5073410;28;20202;-74
2021/07/05 04:22:34;;;;;;;3.35;2.88;;;17.70;99.90;;;;;;5073717;28;20202;-80
2021/07/05 04:25:01;;;;;;;6.15;3.25;;;17.60;99.90;;;;;;5073006;28;20218;-72
2021/07/05 04:27:28;;;;;;;4.25;3.05;;;17.60;99.90;;;;;;5073636;28;20558;-77
2021/07/05 04:29:55;;;;;;;3.38;2.88;;;17.60;99.90;;;;;;5073340;28;20206;-72
2021/07/05 04:32:24;;;;;;;3.28;2.97;;;17.70;99.90;;;;;;5073487;28;20287;-70
2021/07/05 04:34:51;;;;;;;5.50;3.53;;;17.70;99.90;;;;;;5073565;28;20259;-80
2021/07/05 04:37:18;;;;;;;3.22;2.70;;;17.70;99.90;;;;;;5073609;28;20263;-74
2021/07/05 04:39:45;;;;;;;4.30;3.40;;;17.60;99.90;;;;;;5072822;28;20256;-80
2021/07/05 04:42:12;;;;;;;11.85;2.97;;;17.70;99.90;;;;;;5073302;28;20267;-72
2021/07/05 04:44:40;;;;;;;5.78;2.67;;;17.70;99.90;;;;;;5073175;28;20645;-71
2021/07/05 04:47:07;;;;;;;4.28;3.85;;;17.70;99.90;;;;;;5073508;28;20198;-81
2021/07/05 04:49:37;;;;;;;4.00;3.67;;;17.70;99.90;;;;;;5073663;28;20202;-80
2021/07/05 04:52:04;;;;;;;5.95;3.47;;;17.80;99.90;;;;;;5072566;28;20226;-71
2021/07/05 04:54:31;;;;;;;3.85;3.33;;;17.80;99.90;;;;;;5072250;28;20267;-72
2021/07/05 04:56:58;;;;;;;4.53;3.58;;;17.90;99.90;;;;;;5072405;28;20202;-70
2021/07/05 04:59:26;;;;;;;3.35;3.05;;;17.80;99.90;;;;;;5073488;28;20263;-70
2021/07/05 05:01:53;;;;;;;5.53;4.32;;;17.90;99.90;;;;;;5072705;28;20234;-82
2021/07/05 05:04:20;;;;;;;6.28;3.63;;;17.90;99.90;;;;;;5073123;28;20206;-76
2021/07/05 05:06:48;;;;;;;4.68;3.95;;;17.90;99.90;;;;;;5072409;28;20202;-80
2021/07/05 05:09:17;;;;;;;4.07;3.72;;;18.00;99.90;;;;;;5073036;28;20263;-81
2021/07/05 05:11:44;;;;;;;4.97;4.55;;;18.00;99.90;;;;;;5072155;28;20586;-73
2021/07/05 05:14:11;;;;;;;7.72;3.70;;;18.00;99.90;;;;;;5072801;28;20252;-79
2021/07/05 05:16:38;;;;;;;4.75;4.10;;;18.00;99.90;;;;;;5073297;28;20206;-71
2021/07/05 05:19:05;;;;;;;5.55;3.60;;;18.10;99.90;;;;;;5072880;28;20292;-73
2021/07/05 05:21:33;;;;;;;5.13;3.55;;;18.20;99.90;;;;;;5072563;28;20210;-76
2021/07/05 05:24:01;;;;;;;3.70;3.40;;;18.20;99.90;;;;;;5071735;28;20764;-69
2021/07/05 05:26:28;;;;;;;4.30;3.90;;;18.30;99.90;;;;;;5073359;28;20206;-81
2021/07/05 05:28:55;;;;;;;4.65;3.95;;;18.30;99.90;;;;;;5072170;28;20254;-79
2021/07/05 05:31:23;;;;;;;6.80;4.38;;;18.30;99.90;;;;;;5072566;28;20275;-76
2021/07/05 05:33:50;;;;;;;6.57;4.07;;;18.40;99.90;;;;;;5072319;28;20616;-70
2021/07/05 05:36:17;;;;;;;6.30;4.20;;;18.40;99.90;;;;;;5071796;28;20673;-71
2021/07/05 05:38:48;;;;;;;9.65;4.65;;;18.50;99.90;;;;;;5071876;28;20210;-71
2021/07/05 05:41:17;;;;;;;5.50;4.55;;;18.50;99.90;;;;;;5072251;28;20206;-73
2021/07/05 05:43:44;;;;;;;4.97;4.50;;;18.50;99.90;;;;;;5071825;28;20728;-73
2021/07/05 05:46:15;;;;;;;6.25;4.85;;;18.80;99.90;;;;;;5072017;28;20641;-76
2021/07/05 05:48:43;;;;;;;7.60;4.50;;;18.70;99.90;;;;;;5071569;28;20229;-71
2021/07/05 05:51:10;;;;;;;9.68;4.32;;;18.80;99.90;;;;;;5072027;28;20206;-71
2021/07/05 05:53:37;;;;;;;5.32;4.28;;;18.80;99.90;;;;;;5072093;28;20206;-71
2021/07/05 05:56:05;;;;;;;7.32;4.07;;;18.90;99.90;;;;;;5071682;28;20739;-72
2021/07/05 05:58:37;;;;;;;4.13;3.70;;;18.90;99.90;;;;;;5071586;28;20680;-72
2021/07/05 06:01:05;;;;;;;7.50;4.55;;;19.00;99.90;;;;;;5071976;28;20199;-81
2021/07/05 06:03:32;;;;;;;5.22;4.25;;;19.10;99.90;;;;;;5074925;28;20206;-72
2021/07/05 06:05:59;;;;;;;4.38;3.97;;;19.10;99.90;;;;;;5076825;28;20743;-81
2021/07/05 06:08:26;;;;;;;4.85;3.70;;;19.20;99.90;;;;;;5071987;28;20271;-75
2021/07/05 06:10:53;;;;;;;6.20;4.13;;;19.20;99.90;;;;;;5071115;28;20210;-77
2021/07/05 06:13:20;;;;;;;3.80;3.50;;;20.10;99.90;;;;;;5071258;28;20780;-70
2021/07/05 06:15:49;;;;;;;4.78;4.15;;;20.60;99.90;;;;;;5070537;28;20271;-77
2021/07/05 06:18:16;;;;;;;8.50;4.10;;;21.40;99.90;;;;;;5071216;28;20260;-81
2021/07/05 06:20:42;;;;;;;7.97;7.25;;;19.50;99.90;;;;;;5071006;28;20273;-82
2021/07/05 06:23:17;;;;;;;4.03;3.65;;;19.60;99.90;;;;;;5071870;28;20214;-75
2021/07/05 06:25:44;;;;;;;5.10;4.10;;;19.70;99.90;;;;;;5070548;28;20221;-77
2021/07/05 06:28:12;;;;;;;5.80;4.07;;;19.70;99.90;;;;;;5073304;28;20209;-71
2021/07/05 06:30:39;;;;;;;9.88;8.45;;;19.90;99.90;;;;;;5073325;28;20202;-70
2021/07/05 06:33:07;;;;;;;7.53;4.88;;;19.90;99.90;;;;;;5071372;28;20283;-72
2021/07/05 06:35:34;;;;;;;4.78;3.95;;;19.90;99.90;;;;;;5070847;28;20240;-70
2021/07/05 06:38:01;;;;;;;4.72;3.33;;;20.00;99.90;;;;;;5069808;28;20639;-76
2021/07/05 06:40:28;;;;;;;3.92;3.63;;;20.10;99.90;;;;;;5070962;28;20206;-71
2021/07/05 06:42:56;;;;;;;7.07;5.20;;;20.30;99.90;;;;;;5070240;28;20275;-76
2021/07/05 06:45:23;;;;;;;6.03;4.22;;;20.30;99.90;;;;;;5070702;28;20217;-73
2021/07/05 06:47:50;;;;;;;6.03;3.75;;;20.40;99.90;;;;;;5070071;28;20206;-70
2021/07/05 06:50:18;;;;;;;5.45;3.83;;;20.50;99.90;;;;;;5070497;28;20680;-77
2021/07/05 06:52:45;;;;;;;5.32;4.88;;;20.70;99.90;;;;;;5070177;28;20783;-75
2021/07/05 06:55:13;;;;;;;6.32;3.53;;;20.80;99.90;;;;;;5069266;28;20633;-71
2021/07/05 06:57:41;;;;;;;5.43;3.63;;;20.90;99.90;;;;;;5070345;28;20238;-71
2021/07/05 07:00:10;;;;;;;6.63;3.95;;;20.90;99.90;;;;;;5070541;28;20578;-71
2021/07/05 07:02:38;;;;;;;5.97;4.28;;;21.00;99.90;;;;;;5070697;28;20631;-70
2021/07/05 07:05:07;;;;;;;4.47;4.07;;;21.10;99.90;;;;;;5070543;28;20731;-70
2021/07/05 07:07:35;;;;;;;8.07;4.28;;;21.30;99.90;;;;;;5070771;28;20206;-80
2021/07/05 07:10:03;;;;;;;3.38;2.70;;;21.50;99.90;;;;;;5070075;28;20741;-79
2021/07/05 07:12:30;;;;;;;5.18;3.10;;;21.40;99.90;;;;;;5070110;28;20229;-77
2021/07/05 07:14:57;;;;;;;4.35;2.78;;;21.40;99.90;;;;;;5069323;28;20198;-76
2021/07/05 07:17:28;;;;;;;9.02;3.60;;;21.50;99.90;;;;;;5070116;28;20206;-80
2021/07/05 07:19:55;;;;;;;5.70;2.95;;;21.60;99.90;;;;;;5069631;28;20202;-82
2021/07/05 07:22:22;;;;;;;6.60;3.13;;;21.70;99.90;;;;;;5073747;28;20210;-79
2021/07/05 07:24:51;;;;;;;2.92;2.55;;;21.80;99.90;;;;;;5073418;28;20681;-75
2021/07/05 07:27:19;;;;;;;3.65;2.75;;;21.90;99.90;;;;;;5083109;28;20201;-73
2021/07/05 07:29:46;;;;;;;5.50;3.00;;;22.00;99.90;;;;;;5069979;28;20739;-77
2021/07/05 07:32:13;;;;;;;4.55;2.72;;;22.10;99.90;;;;;;5080318;28;20755;-73
2021/07/05 07:34:40;;;;;;;2.92;2.60;;;22.20;99.90;;;;;;5069566;28;20202;-72
2021/07/05 07:37:08;;;;;;;6.03;2.75;;;22.20;99.90;;;;;;5079342;28;20674;-76
2021/07/05 07:39:37;;;;;;;3.70;2.70;;;22.30;99.90;;;;;;5077316;28;20202;-81
2021/07/05 07:42:06;;;;;;;2.42;2.20;;;22.40;99.90;;;;;;5077561;28;20209;-80
2021/07/05 07:44:34;;;;;;;2.70;2.50;;;22.50;99.90;;;;;;5072511;28;20202;-80
2021/07/05 07:47:01;;;;;;;4.22;2.50;;;22.90;99.90;;;;;;5069667;28;20622;-81
2021/07/05 07:49:30;;;;;;;7.47;2.47;;;23.10;99.90;;;;;;5070804;28;20256;-71
2021/07/05 07:51:57;;;;;;;3.33;2.75;;;23.20;99.90;;;;;;5069248;28;20569;-76
2021/07/05 07:54:25;;;;;;;3.40;2.67;;;23.40;99.90;;;;;;5064417;28;20216;-80
2021/07/05 07:56:52;;;;;;;2.47;2.28;;;23.70;99.90;;;;;;5070407;28;20202;-77
2021/07/05 07:59:21;;;;;;;7.57;2.92;;;23.80;99.90;;;;;;5071813;28;20210;-74
2021/07/05 08:01:48;;;;;;;2.85;2.63;;;23.80;99.90;;;;;;5079902;28;20267;-81
2021/07/05 08:04:15;;;;;;;5.63;2.75;;;24.00;99.90;;;;;;5090088;28;20202;-81
2021/07/05 08:06:43;;;;;;;6.25;2.53;;;24.20;99.90;;;;;;5075733;28;20252;-75
2021/07/05 08:09:10;;;;;;;4.55;2.28;;;24.50;99.90;;;;;;5057063;28;20256;-75
2021/07/05 08:11:39;;;;;;;4.95;3.08;;;25.20;99.90;;;;;;5069198;28;20210;-77
2021/07/05 08:14:07;;;;;;;5.95;2.60;;;26.20;99.90;;;;;;5067513;28;20240;-75
2021/07/05 08:16:36;;;;;;;3.70;2.20;;;25.50;99.90;;;;;;5067678;28;20213;-79
2021/07/05 08:19:03;;;;;;;4.15;2.42;;;26.00;99.90;;;;;;5067360;28;20206;-75
2021/07/05 08:21:30;;;;;;;3.92;2.35;;;26.10;99.90;;;;;;5069412;28;20294;-82
2021/07/05 08:23:57;;;;;;;3.92;2.00;;;26.70;99.90;;;;;;5068972;28;20210;-75
2021/07/05 08:26:24;;;;;;;2.47;2.28;;;25.80;99.90;;;;;;5069910;28;20211;-76
2021/07/05 08:28:51;;;;;;;4.45;2.67;;;25.60;99.90;;;;;;5071170;28;20202;-75
2021/07/05 08:31:18;;;;;;;3.63;2.65;;;25.20;99.90;;;;;;5059243;28;20217;-71
2021/07/05 08:33:50;;;;;;;3.85;1.88;;;24.80;99.90;;;;;;5068310;28;20257;-70
2021/07/05 08:36:18;;;;;;;2.78;2.45;;;25.00;99.90;;;;;;5080173;28;20255;-73
2021/07/05 08:38:45;;;;;;;2.30;2.00;;;25.20;99.90;;;;;;5072891;28;20207;-73
2021/07/05 08:41:13;;;;;;;2.38;1.95;;;25.10;99.90;;;;;;5072887;28;20567;-73
2021/07/05 08:43:43;;;;;;;3.05;2.75;;;25.40;99.90;;;;;;5075248;28;20210;-71
2021/07/05 08:46:12;;;;;;;2.25;1.70;;;25.90;99.90;;;;;;5074681;28;20267;-73
2021/07/05 08:48:41;;;;;;;3.97;2.10;;;27.10;99.90;;;;;;5072399;28;20206;-76
2021/07/05 08:51:11;;;;;;;2.00;1.80;;;28.40;99.90;;;;;;5073870;28;20403;-77
2021/07/05 08:53:39;;;;;;;4.40;1.98;;;29.10;99.90;;;;;;5073397;28;20275;-72
2021/07/05 08:56:07;;;;;;;2.78;2.15;;;27.40;99.90;;;;;;5073463;28;20198;-75
2021/07/05 08:58:34;;;;;;;2.78;1.83;;;27.10;99.90;;;;;;5072943;28;20225;-75
2021/07/05 09:01:01;;;;;;;3.58;2.05;;;26.90;99.90;;;;;;5072027;28;20272;-76
2021/07/05 09:03:30;;;;;;;1.88;1.75;;;26.50;99.90;;;;;;5073040;28;20210;-76
2021/07/05 09:06:15;;;;;;;4.45;2.40;;;26.40;99.90;;;;;;5072892;28;20206;-74
2021/07/05 09:08:44;;;;;;;2.60;2.13;;;26.90;99.90;;;;;;5072140;28;20547;-70
2021/07/05 09:11:12;;;;;;;2.40;2.00;;;27.00;99.90;;;;;;5072706;28;20210;-71
2021/07/05 09:13:50;;;;;;;2.10;2.00;;;26.70;99.90;;;;;;5074626;28;20229;-71
2021/07/05 09:16:32;;;;;;;2.53;1.92;;;26.80;99.90;;;;;;5072231;28;20702;-70
2021/07/05 09:18:59;;;;;;;2.28;1.30;;;27.10;99.90;;;;;;5071095;28;20268;-73
2021/07/05 09:21:29;;;;;;;1.05;1.05;;;27.10;99.90;;;;;;5072565;28;20304;-72
2021/07/05 09:24:00;;;;;;;1.38;1.27;;;27.50;99.90;;;;;;5072828;28;20621;-75
2021/07/05 09:26:31;;;;;;;2.13;1.27;;;28.20;99.90;;;;;;5083986;28;20284;-75
2021/07/05 09:28:59;;;;;;;2.20;1.42;;;28.20;99.90;;;;;;5086004;28;20224;-72
2021/07/05 09:31:35;;;;;;;2.15;1.92;;;28.80;99.90;;;;;;5084802;28;20203;-72
2021/07/05 09:34:04;;;;;;;2.90;1.63;;;27.50;99.90;;;;;;5075439;28;20275;-73
2021/07/05 09:36:33;;;;;;;2.05;1.90;;;27.80;99.90;;;;;;5079789;28;20224;-76
2021/07/05 09:39:11;;;;;;;1.77;1.67;;;28.60;99.90;;;;;;5085472;28;20732;-71
2021/07/05 09:41:38;;;;;;;1.60;1.50;;;28.90;99.90;;;;;;5079225;28;20213;-72
2021/07/05 09:44:12;;;;;;;1.83;1.48;;;28.70;99.90;;;;;;5073724;28;20228;-73
2021/07/05 09:46:42;;;;;;;1.40;1.30;;;28.20;99.90;;;;;;5075177;28;20665;-71
2021/07/05 09:49:11;;;;;;;1.73;1.63;;;28.30;99.90;;;;;;5072772;28;20210;-71
2021/07/05 09:51:42;;;;;;;1.95;1.85;;;29.50;99.90;;;;;;5073742;28;20209;-72
2021/07/05 09:54:09;;;;;;;2.63;1.88;;;30.70;99.90;;;;;;5073389;28;20255;-72
2021/07/05 09:56:37;;;;;;;1.77;1.67;;;32.10;99.90;;;;;;5075678;28;20202;-71
2021/07/05 09:59:16;;;;;;;2.10;1.92;;;34.50;99.90;;;;;;5075249;28;20259;-70
2021/07/05 10:01:45;;;;;;;2.60;2.40;;;33.70;99.90;;;;;;5072628;28;20669;-77
2021/07/05 10:04:16;;;;;;;2.45;2.25;;;32.30;99.90;;;;;;5080993;28;20241;-71
2021/07/05 10:06:47;;;;;;;3.20;2.03;;;33.20;99.90;;;;;;5086617;28;20205;-79
2021/07/05 10:09:18;;;;;;;2.00;1.65;;;34.10;99.90;;;;;;5069975;28;20217;-71
2021/07/05 10:11:45;;;;;;;1.40;1.30;;;35.70;99.90;;;;;;5087243;28;20664;-71
2021/07/05 10:14:15;;;;;;;1.70;1.50;;;35.50;99.90;;;;;;5082688;28;20233;-71
2021/07/05 10:16:44;;;;;;;1.98;1.40;;;38.30;99.90;;;;;;5073155;28;20629;-71
2021/07/05 10:19:14;;;;;;;2.88;1.42;;;36.60;99.90;;;;;;5086089;28;20282;-72
2021/07/05 10:21:41;;;;;;;1.65;1.30;;;37.80;99.90;;;;;;5084868;28;20216;-70
2021/07/05 10:24:11;;;;;;;1.85;1.33;;;38.70;99.90;;;;;;5079953;28;20205;-71
2021/07/05 10:26:40;;;;;;;1.20;1.10;;;37.30;99.90;;;;;;5070606;28;20201;-74
2021/07/05 10:29:10;;;;;;;2.25;1.50;;;39.20;99.90;;;;;;5075389;28;20274;-69
2021/07/05 10:31:39;;;;;;;1.13;1.02;;;35.40;99.90;;;;;;5075872;28;20212;-74
2021/07/05 10:34:06;;;;;;;2.25;1.88;;;35.80;99.90;;;;;;5083178;28;20245;-70
2021/07/05 10:36:39;;;;;;;1.08;1.05;;;37.00;99.90;;;;;;5064686;28;20664;-71
2021/07/05 10:39:07;;;;;;;1.88;1.02;;;37.60;99.90;;;;;;5077190;28;20201;-69
2021/07/05 10:41:38;;;;;;;1.85;1.30;;;32.30;99.90;;;;;;5057763;28;20202;-69
2021/07/05 10:44:06;;;;;;;1.25;1.15;;;29.80;99.90;;;;;;5071221;28;20202;-75
2021/07/05 10:46:44;;;;;;;1.55;1.45;;;29.10;99.90;;;;;;5070548;28;20209;-79
2021/07/05 10:49:45;;;;;;;2.20;2.00;;;29.00;99.90;;;;;;5060194;28;20208;-69
2021/07/05 10:52:16;;;;;;;2.35;1.33;;;28.70;99.90;;;;;;5070543;28;20672;-79
2021/07/05 10:54:46;;;;;;;1.40;1.30;;;29.00;99.90;;;;;;5070284;28;20233;-72
2021/07/05 10:57:16;;;;;;;1.95;1.40;;;29.10;99.90;;;;;;5071222;28;20266;-68
2021/07/05 10:59:45;;;;;;;1.80;1.30;;;29.10;99.90;;;;;;5069959;28;20621;-69
2021/07/05 11:02:35;;;;;;;1.25;1.15;;;29.00;99.90;;;;;;5070576;28;20210;-68
2021/07/05 11:05:04;;;;;;;1.92;1.38;;;28.70;99.90;;;;;;5070582;28;20206;-78
2021/07/05 11:07:45;;;;;;;3.38;1.35;;;28.60;99.90;;;;;;5070695;28;20210;-69
2021/07/05 11:10:18;;;;;;;2.25;1.45;;;28.50;99.90;;;;;;5070296;28;20210;-70
2021/07/05 11:13:01;;;;;;;1.77;1.67;;;28.90;99.90;;;;;;5070240;28;20260;-78
2021/07/05 11:15:50;;;;;;;1.27;1.20;;;28.90;99.90;;;;;;5070633;28;20206;-68
2021/07/05 11:18:50;;;;;;;1.00;1.00;;;28.80;99.90;;;;;;5070448;28;20202;-71
2021/07/05 11:21:50;;;;;;;1.45;1.35;;;28.50;99.90;;;;;;5071860;28;20206;-79
2021/07/05 11:24:17;;;;;;;1.83;1.30;;;28.50;99.90;;;;;;5069886;28;20708;-71
2021/07/05 11:26:46;;;;;;;1.63;1.20;;;28.70;99.90;;;;;;5069894;28;20641;-71
2021/07/05 11:29:45;;;;;;;2.03;1.52;;;28.60;99.90;;;;;;5070121;28;20583;-72
2021/07/05 11:32:12;;;;;;;2.53;1.35;;;29.10;99.90;;;;;;5070095;28;20639;-72
2021/07/05 11:34:46;;;;;;;1.40;1.30;;;28.90;99.90;;;;;;5070575;28;20279;-72
2021/07/05 11:37:33;;;;;;;1.98;1.35;;;28.90;99.90;;;;;;5070420;28;20209;-71
2021/07/05 11:40:00;;;;;;;2.08;1.17;;;29.00;99.90;;;;;;5069780;28;20253;-70
2021/07/05 11:42:59;;;;;;;2.72;1.85;;;29.00;99.90;;;;;;5069201;28;20263;-70
2021/07/05 11:45:44;;;;;;;1.75;1.65;;;29.10;99.90;;;;;;5071194;28;20211;-72
2021/07/05 11:48:32;;;;;;;1.67;1.40;;;29.00;99.90;;;;;;5064572;28;20267;-73
2021/07/05 11:50:59;;;;;;;1.52;1.42;;;29.00;99.90;;;;;;5074949;28;20209;-73
2021/07/05 11:53:26;;;;;;;3.63;1.63;;;29.10;99.90;;;;;;5074825;28;20226;-72
2021/07/05 11:55:53;;;;;;;2.22;1.42;;;29.00;99.90;;;;;;5068433;28;20734;-70
2021/07/05 11:58:23;;;;;;;1.60;1.50;;;28.90;99.90;;;;;;5064813;28;20731;-70
2021/07/05 12:00:52;;;;;;;2.90;1.27;;;28.70;99.90;;;;;;5076147;28;20210;-72
2021/07/05 12:03:19;;;;;;;1.42;1.33;;;28.80;99.90;;;;;;5085441;28;20209;-72
2021/07/05 12:06:00;;;;;;;1.60;1.20;;;29.10;99.90;;;;;;5079229;28;20207;-68
2021/07/05 12:08:27;;;;;;;1.10;1.00;;;28.90;99.90;;;;;;5067753;28;20210;-69
2021/07/05 12:10:58;;;;;;;1.10;1.02;;;28.90;99.90;;;;;;5067360;28;20210;-69
2021/07/05 12:13:26;;;;;;;1.65;1.55;;;29.30;99.90;;;;;;5074012;28;20222;-71
2021/07/05 12:15:56;;;;;;;2.28;1.40;;;29.50;99.90;;;;;;5072874;28;20203;-70
2021/07/05 12:18:24;;;;;;;1.20;1.10;;;29.00;99.90;;;;;;5076740;28;20198;-73
2021/07/05 12:20:58;;;;;;;1.10;1.10;;;29.20;99.90;;;;;;5087376;28;20263;-71
2021/07/05 12:23:33;;;;;;;2.08;1.20;;;29.30;99.90;;;;;;5086712;28;20205;-73
2021/07/05 12:26:12;;;;;;;2.15;1.42;;;29.20;99.90;;;;;;5086344;28;20283;-72
2021/07/05 12:29:02;;;;;;;1.30;1.20;;;29.30;99.90;;;;;;5089321;28;20201;-72
2021/07/05 12:31:30;;;;;;;1.95;1.48;;;29.20;99.90;;;;;;5087180;28;20242;-71
2021/07/05 12:33:58;;;;;;;0.85;0.82;;;29.40;99.90;;;;;;5081339;28;20741;-71
2021/07/05 12:36:26;;;;;;;1.10;1.10;;;29.60;99.90;;;;;;5091910;28;20210;-71
2021/07/05 12:39:00;;;;;;;2.17;1.63;;;29.30;99.90;;;;;;5092740;28;20202;-71
2021/07/05 12:41:30;;;;;;;1.70;1.60;;;29.30;99.90;;;;;;5083451;28;20205;-71
2021/07/05 12:44:10;;;;;;;1.10;1.10;;;29.70;99.90;;;;;;5090740;28;20229;-72
2021/07/05 12:46:39;;;;;;;1.98;1.50;;;29.90;99.90;;;;;;5070220;28;20206;-72
2021/07/05 12:49:06;;;;;;;0.93;0.93;;;29.40;99.90;;;;;;5073750;28;20202;-71
2021/07/05 12:51:33;;;;;;;1.27;1.17;;;29.50;99.90;;;;;;5073111;28;20206;-72
2021/07/05 12:54:01;;;;;;;1.00;0.90;;;29.80;99.90;;;;;;5072781;28;20285;-73
2021/07/05 12:56:30;;;;;;;0.98;0.88;;;30.00;99.90;;;;;;5073401;28;20206;-71
2021/07/05 12:58:59;;;;;;;0.90;0.90;;;29.90;99.90;;;;;;5072667;28;20202;-69